createdAt,value
2023-07-09T00:00:11.771Z,99320.59
2023-07-09T00:05:03.583Z,99323.34
2023-07-09T00:09:56.472Z,99315.38
2023-07-09T00:14:48.239Z,99310.72
2023-07-09T00:19:40.156Z,99309.38
2023-07-09T00:24:32.124Z,99313.75
2023-07-09T00:29:23.838Z,99320.03
2023-07-09T00:34:18.645Z,99319.22
2023-07-09T00:39:21.825Z,99311.28
2023-07-09T00:44:30.578Z,99304.13
2023-07-09T00:49:35.747Z,99315.66
2023-07-09T00:54:38.012Z,99316.72
2023-07-09T00:59:32.806Z,99316.19
2023-07-09T01:04:25.492Z,99323.06
2023-07-09T01:09:18.515Z,99334.00
2023-07-09T01:14:17.454Z,99329.06
2023-07-09T01:19:09.249Z,99325.19
2023-07-09T01:24:16.161Z,99326.59
2023-07-09T01:29:08.778Z,99325.47
2023-07-09T01:34:00.453Z,99324.66
2023-07-09T01:38:54.754Z,99321.66
2023-07-09T01:43:47.898Z,99335.63
2023-07-09T01:48:42.294Z,99316.13
2023-07-09T01:53:34.908Z,99329.03
2023-07-09T01:58:26.546Z,99325.97
2023-07-09T02:03:18.924Z,99329.53
2023-07-09T02:08:10.589Z,99338.50
2023-07-09T02:13:02.578Z,99348.34
2023-07-09T02:17:54.303Z,99352.16
2023-07-09T02:22:46.455Z,99339.84
2023-07-09T02:27:38.747Z,99348.28
2023-07-09T02:32:30.592Z,99341.13
2023-07-09T02:37:27.279Z,99346.31
2023-07-09T02:42:21.022Z,99336.47
2023-07-09T02:47:13.786Z,99356.16
2023-07-09T02:52:06.909Z,99360.78
2023-07-09T02:56:58.571Z,99351.44
2023-07-09T03:01:50.476Z,99345.38
2023-07-09T03:06:42.993Z,99339.34
2023-07-09T03:11:36.191Z,99331.41
2023-07-09T03:16:30.059Z,99357.09
2023-07-09T03:21:25.828Z,99354.88
2023-07-09T03:26:17.796Z,99359.75
2023-07-09T03:31:09.843Z,99354.53
2023-07-09T03:36:02.128Z,99358.34
2023-07-09T03:40:55.206Z,99366.00
2023-07-09T03:45:48.302Z,99376.31
2023-07-09T03:50:40.094Z,99373.81
2023-07-09T03:55:31.817Z,99356.53
2023-07-09T04:00:23.663Z,99367.41
2023-07-09T04:05:15.838Z,99366.31
2023-07-09T04:10:07.871Z,99369.56
2023-07-09T04:14:59.587Z,99363.50
2023-07-09T04:19:52.065Z,99378.03
2023-07-09T04:24:44.306Z,99375.81
2023-07-09T04:29:36.688Z,99389.91
2023-07-09T04:34:28.403Z,99396.75
2023-07-09T04:39:20.245Z,99379.78
2023-07-09T04:44:12.012Z,99389.88
2023-07-09T04:49:05.035Z,99394.78
2023-07-09T04:53:56.850Z,99396.38
2023-07-09T04:58:50.402Z,99396.91
2023-07-09T05:03:42.342Z,99400.97
2023-07-09T05:08:34.152Z,99379.69
2023-07-09T05:13:26.306Z,99377.50
2023-07-09T05:18:19.635Z,99372.31
2023-07-09T05:23:12.131Z,99368.25
2023-07-09T05:28:05.116Z,99383.59
2023-07-09T05:32:58.774Z,99374.63
2023-07-09T05:37:50.460Z,99361.81
2023-07-09T05:42:42.133Z,99374.50
2023-07-09T05:47:33.874Z,99380.59
2023-07-09T05:52:25.707Z,99385.84
2023-07-09T05:57:17.729Z,99389.56
2023-07-09T06:02:14.188Z,99392.78
2023-07-09T06:07:06.112Z,99375.91
2023-07-09T06:11:57.793Z,99364.97
2023-07-09T06:16:49.495Z,99370.50
2023-07-09T06:21:41.693Z,99380.50
2023-07-09T06:26:33.348Z,99388.84
2023-07-09T06:31:25.786Z,99377.63
2023-07-09T06:36:18.742Z,99394.44
2023-07-09T06:41:10.372Z,99402.50
2023-07-09T06:46:03.179Z,99416.75
2023-07-09T06:50:56.605Z,99404.66
2023-07-09T06:55:50.183Z,99406.00
2023-07-09T07:00:41.945Z,99423.63
2023-07-09T07:05:34.462Z,99429.41
2023-07-09T07:10:28.052Z,99410.19
2023-07-09T07:15:20.362Z,99422.56
2023-07-09T07:20:14.152Z,99417.00
2023-07-09T07:25:07.795Z,99422.00
2023-07-09T07:29:59.479Z,99431.75
2023-07-09T07:34:51.291Z,99450.97
2023-07-09T07:39:43.394Z,99454.66
2023-07-09T07:44:35.236Z,99450.22
2023-07-09T07:49:27.176Z,99455.03
2023-07-09T07:54:19.490Z,99481.84
2023-07-09T07:59:11.276Z,99477.84
2023-07-09T08:04:04.007Z,99490.59
2023-07-09T08:08:55.857Z,99485.44
2023-07-09T08:13:47.548Z,99496.16
2023-07-09T08:18:39.805Z,99494.25
2023-07-09T08:23:32.169Z,99481.34
2023-07-09T08:28:24.621Z,99480.00
2023-07-09T08:33:16.287Z,99481.94
2023-07-09T08:38:08.109Z,99465.94
2023-07-09T08:43:09.656Z,99459.91
2023-07-09T08:48:22.124Z,99456.75
2023-07-09T08:53:24.581Z,99450.66
2023-07-09T08:58:24.473Z,99434.59
2023-07-09T09:03:36.860Z,99428.72
2023-07-09T09:09:05.751Z,99436.75
2023-07-09T09:14:02.506Z,99430.50
2023-07-09T09:18:58.614Z,99431.63
2023-07-09T09:23:57.466Z,99433.41
2023-07-09T09:28:49.460Z,99431.84
2023-07-09T09:33:46.201Z,99440.88
2023-07-09T09:38:38.201Z,99442.94
2023-07-09T09:43:34.190Z,99440.19
2023-07-09T09:48:31.860Z,99432.19
2023-07-09T09:53:25.253Z,99439.25
2023-07-09T09:58:18.658Z,99436.69
2023-07-09T10:03:11.815Z,99434.00
2023-07-09T10:08:10.687Z,99434.94
2023-07-09T10:13:17.301Z,99425.91
2023-07-09T10:18:33.278Z,99425.63
2023-07-09T10:23:47.949Z,99428.53
2023-07-09T10:29:11.978Z,99417.75
2023-07-09T10:34:22.136Z,99417.81
2023-07-09T10:39:29.344Z,99418.97
2023-07-09T10:44:30.584Z,99408.41
2023-07-09T10:49:23.292Z,99419.47
2023-07-09T10:54:50.511Z,99417.47
2023-07-09T10:59:43.088Z,99419.50
2023-07-09T11:04:40.713Z,99409.03
2023-07-09T11:09:35.758Z,99406.00
2023-07-09T11:15:06.290Z,99414.72
2023-07-09T11:20:02.517Z,99410.91
2023-07-09T11:25:12.881Z,99422.16
2023-07-09T11:30:19.347Z,99409.94
2023-07-09T11:35:22.821Z,99408.16
2023-07-09T11:40:15.504Z,99404.22
2023-07-09T11:45:17.583Z,99401.78
2023-07-09T11:50:26.406Z,99395.00
2023-07-09T11:55:34.580Z,99384.09
2023-07-09T12:00:34.847Z,99400.41
2023-07-09T12:05:29.774Z,99402.47
2023-07-09T12:10:25.045Z,99397.78
2023-07-09T12:15:22.974Z,99384.84
2023-07-09T12:20:15.133Z,99375.19
2023-07-09T12:25:20.968Z,99377.09
2023-07-09T12:30:13.623Z,99380.91
2023-07-09T12:35:08.922Z,99374.00
2023-07-09T12:40:02.008Z,99372.38
2023-07-09T12:44:56.759Z,99365.13
2023-07-09T12:49:52.996Z,99370.22
2023-07-09T12:54:56.053Z,99371.16
2023-07-09T12:59:49.192Z,99365.94
2023-07-09T13:04:41.115Z,99355.84
2023-07-09T13:09:33.169Z,99351.44
2023-07-09T13:14:31.663Z,99350.13
2023-07-09T13:19:23.333Z,99348.72
2023-07-09T13:24:24.599Z,99342.44
2023-07-09T13:29:18.495Z,99335.56
2023-07-09T13:34:20.308Z,99334.44
2023-07-09T13:39:14.146Z,99335.34
2023-07-09T13:44:13.165Z,99329.78
2023-07-09T13:49:09.958Z,99334.09
2023-07-09T13:54:03.640Z,99327.28
2023-07-09T13:58:55.337Z,99323.53
2023-07-09T14:03:47.212Z,99324.72
2023-07-09T14:08:38.958Z,99325.22
2023-07-09T14:13:33.141Z,99330.13
2023-07-09T14:18:24.939Z,99321.09
2023-07-09T14:23:18.551Z,99327.59
2023-07-09T14:28:13.360Z,99321.66
2023-07-09T14:33:06.411Z,99315.59
2023-07-09T14:38:00.691Z,99320.47
2023-07-09T14:42:52.569Z,99325.66
2023-07-09T14:47:44.672Z,99314.66
2023-07-09T14:52:36.770Z,99309.22
2023-07-09T14:57:31.029Z,99315.97
2023-07-09T15:02:22.713Z,99302.56
2023-07-09T15:07:15.400Z,99352.13
2023-07-09T15:12:23.199Z,99372.69
2023-07-09T15:17:15.218Z,99373.31
2023-07-09T15:22:18.464Z,99349.00
2023-07-09T15:27:10.141Z,99367.19
2023-07-09T15:32:02.040Z,99365.41
2023-07-09T15:36:54.146Z,99377.44
2023-07-09T15:41:46.998Z,99386.28
2023-07-09T15:46:41.473Z,99405.09
2023-07-09T15:51:33.277Z,99438.66
2023-07-09T15:56:31.190Z,99410.50
2023-07-09T16:01:25.237Z,99401.38
2023-07-09T16:06:19.150Z,99395.22
2023-07-09T16:11:19.130Z,99393.16
2023-07-09T16:16:19.845Z,99389.22
2023-07-09T16:21:23.688Z,99376.38
2023-07-09T16:26:15.361Z,99363.75
2023-07-09T16:31:07.796Z,99356.72
2023-07-09T16:35:59.522Z,99355.53
2023-07-09T16:40:51.514Z,99350.41
2023-07-09T16:45:43.225Z,99337.63
2023-07-09T16:50:34.864Z,99329.84
2023-07-09T16:55:28.681Z,99338.91
2023-07-09T17:00:27.592Z,99328.31
2023-07-09T17:05:20.193Z,99318.16
2023-07-09T17:10:13.925Z,99318.63
2023-07-09T17:15:26.980Z,99333.59
2023-07-09T17:20:19.505Z,99346.31
2023-07-09T17:25:40.880Z,99356.25
2023-07-09T17:30:32.558Z,99358.50
2023-07-09T17:35:25.993Z,99357.94
2023-07-09T17:40:43.144Z,99365.13
2023-07-09T17:45:35.411Z,99357.72
2023-07-09T17:50:27.550Z,99367.28
2023-07-09T17:55:20.018Z,99367.06
2023-07-09T18:00:20.325Z,99356.75
2023-07-09T18:05:23.404Z,99367.19
2023-07-09T18:10:15.220Z,99357.25
2023-07-09T18:15:15.105Z,99344.72
2023-07-09T18:20:14.538Z,99358.13
2023-07-09T18:25:06.507Z,99354.09
2023-07-09T18:29:58.354Z,99361.84
2023-07-09T18:35:02.777Z,99359.81
2023-07-09T18:39:54.591Z,99365.91
2023-07-09T18:44:47.149Z,99350.81
2023-07-09T18:49:38.859Z,99344.16
2023-07-09T18:54:30.519Z,99365.88
2023-07-09T18:59:22.761Z,99367.50
2023-07-09T19:04:18.675Z,99368.34
2023-07-09T19:09:24.356Z,99368.09
2023-07-09T19:14:17.530Z,99356.97
2023-07-09T19:19:17.373Z,99356.13
2023-07-09T19:24:24.162Z,99349.78
2023-07-09T19:29:17.373Z,99357.63
2023-07-09T19:34:27.222Z,99354.63
2023-07-09T19:39:37.234Z,99348.34
2023-07-09T19:44:28.883Z,99353.47
2023-07-09T19:49:20.691Z,99359.63
2023-07-09T19:54:15.174Z,99371.00
2023-07-09T19:59:06.799Z,99366.09
2023-07-09T20:03:58.436Z,99371.69
2023-07-09T20:08:50.563Z,99375.34
2023-07-09T20:13:42.608Z,99377.63
2023-07-09T20:18:34.275Z,99391.72
2023-07-09T20:23:27.077Z,99408.25
2023-07-09T20:28:21.139Z,99405.28
2023-07-09T20:33:13.912Z,99410.47
2023-07-09T20:38:32.410Z,99417.66
2023-07-09T20:43:30.094Z,99417.91
2023-07-09T20:48:23.427Z,99423.19
2023-07-09T20:53:17.345Z,99442.44
2023-07-09T20:58:16.961Z,99431.72
2023-07-09T21:03:14.434Z,99435.84
2023-07-09T21:08:17.355Z,99450.69
2023-07-09T21:13:12.925Z,99445.47
2023-07-09T21:18:07.240Z,99448.78
2023-07-09T21:22:58.870Z,99452.88
2023-07-09T21:27:51.599Z,99460.50
2023-07-09T21:32:44.456Z,99458.31
2023-07-09T21:37:36.149Z,99462.69
2023-07-09T21:42:27.864Z,99468.19
2023-07-09T21:47:19.930Z,99464.84
2023-07-09T21:52:20.278Z,99461.00
2023-07-09T21:57:11.922Z,99468.91
2023-07-09T22:02:04.037Z,99468.91
2023-07-09T22:06:57.613Z,99478.47
2023-07-09T22:11:49.343Z,99474.59
2023-07-09T22:16:43.173Z,99472.38
2023-07-09T22:21:39.584Z,99485.16
2023-07-09T22:26:33.911Z,99489.16
2023-07-09T22:31:26.766Z,99490.78
2023-07-09T22:36:18.501Z,99494.03
2023-07-09T22:41:10.468Z,99500.31
2023-07-09T22:46:03.741Z,99502.75
2023-07-09T22:50:56.507Z,99503.53
2023-07-09T22:55:50.024Z,99501.25
2023-07-09T23:00:45.889Z,99502.00
2023-07-09T23:05:37.544Z,99508.53
2023-07-09T23:10:29.582Z,99510.38
2023-07-09T23:15:25.979Z,99511.75
2023-07-09T23:20:17.647Z,99508.94
2023-07-09T23:25:12.480Z,99504.22
2023-07-09T23:30:33.130Z,99513.47
2023-07-09T23:35:26.825Z,99513.69
2023-07-09T23:40:20.676Z,99520.44
2023-07-09T23:45:19.780Z,99524.22
2023-07-09T23:50:22.675Z,99520.50
2023-07-09T23:55:15.449Z,99522.81
